sensor_id;sensor_type;location;lat;lon;timestamp;P1;durP1;ratioP1;P2;durP2;ratioP2
43118;SDS011;28729;49.838;8.650;2023-02-28T00:00:18;1.67;;;1.25;;
43118;SDS011;28729;49.838;8.650;2023-02-28T00:04:20;2.65;;;1.60;;
43118;SDS011;28729;49.838;8.650;2023-02-28T00:08:22;3.13;;;1.58;;
43118;SDS011;28729;49.838;8.650;2023-02-28T00:12:24;1.63;;;1.20;;
43118;SDS011;28729;49.838;8.650;2023-02-28T00:16:25;4.43;;;1.85;;
43118;SDS011;28729;49.838;8.650;2023-02-28T00:20:27;3.90;;;1.65;;
43118;SDS011;28729;49.838;8.650;2023-02-28T00:24:29;3.43;;;1.67;;
43118;SDS011;28729;49.838;8.650;2023-02-28T00:28:31;2.53;;;1.50;;
43118;SDS011;28729;49.838;8.650;2023-02-28T00:32:33;3.28;;;1.60;;
43118;SDS011;28729;49.838;8.650;2023-02-28T00:40:38;2.08;;;1.50;;
43118;SDS011;28729;49.838;8.650;2023-02-28T00:44:40;2.90;;;1.48;;
43118;SDS011;28729;49.838;8.650;2023-02-28T00:48:41;3.08;;;1.38;;
43118;SDS011;28729;49.838;8.650;2023-02-28T00:52:43;2.03;;;1.27;;
43118;SDS011;28729;49.838;8.650;2023-02-28T00:56:45;3.37;;;1.60;;
43118;SDS011;28729;49.838;8.650;2023-02-28T01:00:50;3.38;;;1.63;;
43118;SDS011;28729;49.838;8.650;2023-02-28T01:04:53;1.83;;;1.35;;
43118;SDS011;28729;49.838;8.650;2023-02-28T01:08:55;2.85;;;1.60;;
43118;SDS011;28729;49.838;8.650;2023-02-28T01:12:56;2.63;;;1.40;;
43118;SDS011;28729;49.838;8.650;2023-02-28T01:16:58;2.50;;;1.30;;
43118;SDS011;28729;49.838;8.650;2023-02-28T01:21:04;2.80;;;1.58;;
43118;SDS011;28729;49.838;8.650;2023-02-28T01:25:07;4.22;;;1.88;;
43118;SDS011;28729;49.838;8.650;2023-02-28T01:29:09;1.98;;;1.30;;
43118;SDS011;28729;49.838;8.650;2023-02-28T01:33:10;3.03;;;1.60;;
43118;SDS011;28729;49.838;8.650;2023-02-28T01:37:13;5.07;;;1.52;;
43118;SDS011;28729;49.838;8.650;2023-02-28T01:41:27;3.55;;;1.98;;
43118;SDS011;28729;49.838;8.650;2023-02-28T01:45:34;4.13;;;1.95;;
43118;SDS011;28729;49.838;8.650;2023-02-28T01:53:39;1.80;;;1.40;;
43118;SDS011;28729;49.838;8.650;2023-02-28T01:57:46;7.43;;;1.90;;
43118;SDS011;28729;49.838;8.650;2023-02-28T02:01:52;3.05;;;1.75;;
43118;SDS011;28729;49.838;8.650;2023-02-28T02:05:54;2.88;;;1.85;;
43118;SDS011;28729;49.838;8.650;2023-02-28T02:09:59;4.68;;;1.70;;
43118;SDS011;28729;49.838;8.650;2023-02-28T02:45:13;3.80;;;1.88;;
43118;SDS011;28729;49.838;8.650;2023-02-28T02:49:30;3.20;;;1.63;;
43118;SDS011;28729;49.838;8.650;2023-02-28T02:53:36;4.40;;;2.00;;
43118;SDS011;28729;49.838;8.650;2023-02-28T02:57:51;3.03;;;1.70;;
43118;SDS011;28729;49.838;8.650;2023-02-28T03:02:00;4.35;;;2.30;;
43118;SDS011;28729;49.838;8.650;2023-02-28T03:06:06;3.53;;;2.00;;
43118;SDS011;28729;49.838;8.650;2023-02-28T03:10:29;3.03;;;1.80;;
43118;SDS011;28729;49.838;8.650;2023-02-28T03:14:50;5.53;;;2.35;;
43118;SDS011;28729;49.838;8.650;2023-02-28T03:19:12;3.80;;;2.08;;
43118;SDS011;28729;49.838;8.650;2023-02-28T03:28:00;5.10;;;2.85;;
43118;SDS011;28729;49.838;8.650;2023-02-28T03:36:17;5.00;;;2.50;;
43118;SDS011;28729;49.838;8.650;2023-02-28T03:40:23;7.00;;;2.55;;
43118;SDS011;28729;49.838;8.650;2023-02-28T03:44:32;5.10;;;2.80;;
43118;SDS011;28729;49.838;8.650;2023-02-28T03:53:06;5.50;;;2.40;;
43118;SDS011;28729;49.838;8.650;2023-02-28T03:57:15;6.22;;;3.20;;
43118;SDS011;28729;49.838;8.650;2023-02-28T04:01:39;4.72;;;2.78;;
43118;SDS011;28729;49.838;8.650;2023-02-28T04:05:53;7.32;;;3.20;;
43118;SDS011;28729;49.838;8.650;2023-02-28T04:09:56;6.95;;;2.85;;
43118;SDS011;28729;49.838;8.650;2023-02-28T04:13:58;4.97;;;2.45;;
43118;SDS011;28729;49.838;8.650;2023-02-28T04:18:00;5.97;;;3.00;;
43118;SDS011;28729;49.838;8.650;2023-02-28T04:22:01;5.15;;;2.70;;
43118;SDS011;28729;49.838;8.650;2023-02-28T04:26:03;5.07;;;2.88;;
43118;SDS011;28729;49.838;8.650;2023-02-28T04:30:05;5.28;;;2.92;;
43118;SDS011;28729;49.838;8.650;2023-02-28T04:34:07;4.78;;;2.88;;
43118;SDS011;28729;49.838;8.650;2023-02-28T04:38:09;6.03;;;3.05;;
43118;SDS011;28729;49.838;8.650;2023-02-28T04:42:11;5.63;;;2.75;;
43118;SDS011;28729;49.838;8.650;2023-02-28T04:46:13;4.40;;;2.72;;
43118;SDS011;28729;49.838;8.650;2023-02-28T04:50:14;5.72;;;2.95;;
43118;SDS011;28729;49.838;8.650;2023-02-28T04:54:16;5.57;;;3.33;;
43118;SDS011;28729;49.838;8.650;2023-02-28T04:58:19;7.70;;;3.22;;
43118;SDS011;28729;49.838;8.650;2023-02-28T05:02:20;5.45;;;2.83;;
43118;SDS011;28729;49.838;8.650;2023-02-28T05:06:23;5.77;;;3.10;;
43118;SDS011;28729;49.838;8.650;2023-02-28T05:10:26;5.95;;;3.28;;
43118;SDS011;28729;49.838;8.650;2023-02-28T05:14:28;7.45;;;3.25;;
43118;SDS011;28729;49.838;8.650;2023-02-28T05:18:30;4.18;;;2.97;;
43118;SDS011;28729;49.838;8.650;2023-02-28T05:22:31;5.50;;;2.88;;
43118;SDS011;28729;49.838;8.650;2023-02-28T05:26:36;5.17;;;2.73;;
43118;SDS011;28729;49.838;8.650;2023-02-28T05:30:41;6.40;;;3.38;;
43118;SDS011;28729;49.838;8.650;2023-02-28T05:34:43;6.30;;;3.40;;
43118;SDS011;28729;49.838;8.650;2023-02-28T05:38:48;5.97;;;3.27;;
43118;SDS011;28729;49.838;8.650;2023-02-28T05:42:50;5.82;;;2.85;;
43118;SDS011;28729;49.838;8.650;2023-02-28T05:46:53;6.45;;;3.00;;
43118;SDS011;28729;49.838;8.650;2023-02-28T05:50:56;4.43;;;2.95;;
43118;SDS011;28729;49.838;8.650;2023-02-28T05:54:59;5.13;;;2.70;;
43118;SDS011;28729;49.838;8.650;2023-02-28T05:59:01;5.25;;;2.78;;
43118;SDS011;28729;49.838;8.650;2023-02-28T06:03:02;5.78;;;2.72;;
43118;SDS011;28729;49.838;8.650;2023-02-28T06:07:04;5.27;;;2.77;;
43118;SDS011;28729;49.838;8.650;2023-02-28T06:11:06;5.55;;;2.92;;
43118;SDS011;28729;49.838;8.650;2023-02-28T06:15:14;4.82;;;3.00;;
43118;SDS011;28729;49.838;8.650;2023-02-28T06:19:17;7.32;;;2.80;;
43118;SDS011;28729;49.838;8.650;2023-02-28T06:27:21;4.97;;;2.83;;
43118;SDS011;28729;49.838;8.650;2023-02-28T06:31:23;5.57;;;3.00;;
43118;SDS011;28729;49.838;8.650;2023-02-28T06:35:28;4.57;;;3.03;;
43118;SDS011;28729;49.838;8.650;2023-02-28T06:39:30;5.10;;;3.22;;
43118;SDS011;28729;49.838;8.650;2023-02-28T06:43:34;4.90;;;3.20;;
43118;SDS011;28729;49.838;8.650;2023-02-28T06:47:38;8.35;;;4.63;;
43118;SDS011;28729;49.838;8.650;2023-02-28T06:51:42;9.50;;;4.05;;
43118;SDS011;28729;49.838;8.650;2023-02-28T06:55:48;5.20;;;2.90;;
43118;SDS011;28729;49.838;8.650;2023-02-28T06:59:49;5.57;;;3.60;;
43118;SDS011;28729;49.838;8.650;2023-02-28T07:03:51;11.15;;;3.97;;
43118;SDS011;28729;49.838;8.650;2023-02-28T07:07:53;16.23;;;6.47;;
43118;SDS011;28729;49.838;8.650;2023-02-28T07:11:57;8.70;;;4.80;;
43118;SDS011;28729;49.838;8.650;2023-02-28T07:16:00;12.18;;;5.60;;
43118;SDS011;28729;49.838;8.650;2023-02-28T07:20:04;11.20;;;4.93;;
43118;SDS011;28729;49.838;8.650;2023-02-28T07:28:08;4.22;;;2.90;;
43118;SDS011;28729;49.838;8.650;2023-02-28T07:32:09;2.10;;;1.80;;
43118;SDS011;28729;49.838;8.650;2023-02-28T07:36:13;5.82;;;3.25;;
43118;SDS011;28729;49.838;8.650;2023-02-28T07:40:16;6.35;;;3.60;;
43118;SDS011;28729;49.838;8.650;2023-02-28T07:48:22;4.93;;;3.00;;
43118;SDS011;28729;49.838;8.650;2023-02-28T07:52:24;9.70;;;3.92;;
43118;SDS011;28729;49.838;8.650;2023-02-28T07:56:26;4.57;;;2.50;;
43118;SDS011;28729;49.838;8.650;2023-02-28T08:04:33;4.07;;;1.90;;
43118;SDS011;28729;49.838;8.650;2023-02-28T08:08:34;4.60;;;2.63;;
43118;SDS011;28729;49.838;8.650;2023-02-28T08:12:36;4.93;;;2.30;;
43118;SDS011;28729;49.838;8.650;2023-02-28T08:16:38;7.85;;;3.00;;
43118;SDS011;28729;49.838;8.650;2023-02-28T08:20:40;5.27;;;2.30;;
43118;SDS011;28729;49.838;8.650;2023-02-28T08:24:41;4.97;;;2.80;;
43118;SDS011;28729;49.838;8.650;2023-02-28T08:28:44;5.45;;;2.47;;
43118;SDS011;28729;49.838;8.650;2023-02-28T08:32:46;4.63;;;2.22;;
43118;SDS011;28729;49.838;8.650;2023-02-28T08:36:47;5.13;;;2.33;;
43118;SDS011;28729;49.838;8.650;2023-02-28T08:40:50;4.38;;;1.95;;
43118;SDS011;28729;49.838;8.650;2023-02-28T08:44:59;3.70;;;2.35;;
43118;SDS011;28729;49.838;8.650;2023-02-28T08:49:01;5.45;;;2.50;;
43118;SDS011;28729;49.838;8.650;2023-02-28T08:53:03;5.00;;;2.72;;
43118;SDS011;28729;49.838;8.650;2023-02-28T08:57:05;6.75;;;3.13;;
43118;SDS011;28729;49.838;8.650;2023-02-28T09:01:11;5.15;;;2.50;;
43118;SDS011;28729;49.838;8.650;2023-02-28T09:05:16;7.32;;;3.70;;
43118;SDS011;28729;49.838;8.650;2023-02-28T09:09:18;7.22;;;3.25;;
43118;SDS011;28729;49.838;8.650;2023-02-28T09:13:20;14.50;;;6.25;;
43118;SDS011;28729;49.838;8.650;2023-02-28T09:17:24;24.73;;;7.75;;
43118;SDS011;28729;49.838;8.650;2023-02-28T09:21:31;12.73;;;6.10;;
43118;SDS011;28729;49.838;8.650;2023-02-28T09:25:33;13.02;;;7.57;;
43118;SDS011;28729;49.838;8.650;2023-02-28T09:29:35;8.43;;;4.68;;
43118;SDS011;28729;49.838;8.650;2023-02-28T09:33:37;10.68;;;4.93;;
43118;SDS011;28729;49.838;8.650;2023-02-28T09:37:43;7.50;;;3.95;;
43118;SDS011;28729;49.838;8.650;2023-02-28T09:41:48;8.38;;;4.75;;
43118;SDS011;28729;49.838;8.650;2023-02-28T09:46:05;12.15;;;5.30;;
43118;SDS011;28729;49.838;8.650;2023-02-28T09:54:34;12.45;;;4.82;;
43118;SDS011;28729;49.838;8.650;2023-02-28T09:58:41;11.75;;;5.55;;
43118;SDS011;28729;49.838;8.650;2023-02-28T10:02:57;13.27;;;5.75;;
43118;SDS011;28729;49.838;8.650;2023-02-28T10:07:15;9.80;;;4.82;;
43118;SDS011;28729;49.838;8.650;2023-02-28T10:11:23;12.50;;;5.60;;
43118;SDS011;28729;49.838;8.650;2023-02-28T10:15:27;23.55;;;9.88;;
43118;SDS011;28729;49.838;8.650;2023-02-28T10:19:33;10.07;;;5.38;;
43118;SDS011;28729;49.838;8.650;2023-02-28T10:23:40;13.18;;;6.00;;
43118;SDS011;28729;49.838;8.650;2023-02-28T10:27:41;16.63;;;6.50;;
43118;SDS011;28729;49.838;8.650;2023-02-28T10:31:43;14.50;;;6.05;;
43118;SDS011;28729;49.838;8.650;2023-02-28T10:35:45;13.32;;;6.00;;
43118;SDS011;28729;49.838;8.650;2023-02-28T10:39:47;6.67;;;4.77;;
43118;SDS011;28729;49.838;8.650;2023-02-28T10:43:49;10.57;;;5.18;;
43118;SDS011;28729;49.838;8.650;2023-02-28T10:47:53;7.57;;;4.60;;
43118;SDS011;28729;49.838;8.650;2023-02-28T10:52:02;6.65;;;3.83;;
43118;SDS011;28729;49.838;8.650;2023-02-28T10:56:06;6.27;;;3.70;;
43118;SDS011;28729;49.838;8.650;2023-02-28T11:00:15;7.50;;;4.35;;
43118;SDS011;28729;49.838;8.650;2023-02-28T11:08:34;8.00;;;4.10;;
43118;SDS011;28729;49.838;8.650;2023-02-28T11:12:45;8.93;;;4.38;;
43118;SDS011;28729;49.838;8.650;2023-02-28T11:16:54;8.05;;;3.95;;
43118;SDS011;28729;49.838;8.650;2023-02-28T11:21:00;6.90;;;3.75;;
43118;SDS011;28729;49.838;8.650;2023-02-28T11:25:16;7.15;;;3.85;;
43118;SDS011;28729;49.838;8.650;2023-02-28T11:29:25;7.85;;;4.78;;
43118;SDS011;28729;49.838;8.650;2023-02-28T11:33:28;7.30;;;4.45;;
43118;SDS011;28729;49.838;8.650;2023-02-28T11:37:52;6.97;;;4.55;;
43118;SDS011;28729;49.838;8.650;2023-02-28T11:54:35;8.82;;;4.78;;
43118;SDS011;28729;49.838;8.650;2023-02-28T11:59:14;7.25;;;4.72;;
43118;SDS011;28729;49.838;8.650;2023-02-28T12:20:35;11.45;;;6.00;;
43118;SDS011;28729;49.838;8.650;2023-02-28T12:24:48;11.48;;;5.53;;
43118;SDS011;28729;49.838;8.650;2023-02-28T12:33:34;7.90;;;5.10;;
43118;SDS011;28729;49.838;8.650;2023-02-28T12:37:43;7.97;;;5.05;;
43118;SDS011;28729;49.838;8.650;2023-02-28T12:46:10;7.28;;;5.32;;
43118;SDS011;28729;49.838;8.650;2023-02-28T12:50:16;8.02;;;5.75;;
43118;SDS011;28729;49.838;8.650;2023-02-28T12:54:21;7.95;;;5.30;;
43118;SDS011;28729;49.838;8.650;2023-02-28T13:03:28;8.30;;;5.87;;
43118;SDS011;28729;49.838;8.650;2023-02-28T13:12:14;8.13;;;5.00;;
43118;SDS011;28729;49.838;8.650;2023-02-28T13:16:18;10.35;;;6.03;;
43118;SDS011;28729;49.838;8.650;2023-02-28T13:20:24;7.97;;;5.18;;
43118;SDS011;28729;49.838;8.650;2023-02-28T13:33:25;10.77;;;6.22;;
43118;SDS011;28729;49.838;8.650;2023-02-28T13:37:36;11.63;;;5.32;;
43118;SDS011;28729;49.838;8.650;2023-02-28T13:41:44;10.13;;;5.65;;
43118;SDS011;28729;49.838;8.650;2023-02-28T13:46:07;8.70;;;5.72;;
43118;SDS011;28729;49.838;8.650;2023-02-28T13:54:31;10.82;;;6.20;;
43118;SDS011;28729;49.838;8.650;2023-02-28T13:59:20;8.90;;;5.13;;
43118;SDS011;28729;49.838;8.650;2023-02-28T14:08:28;11.23;;;5.53;;
43118;SDS011;28729;49.838;8.650;2023-02-28T14:17:03;10.27;;;5.03;;
43118;SDS011;28729;49.838;8.650;2023-02-28T14:21:10;9.00;;;4.85;;
43118;SDS011;28729;49.838;8.650;2023-02-28T14:38:55;8.20;;;5.22;;
43118;SDS011;28729;49.838;8.650;2023-02-28T14:43:00;9.02;;;4.70;;
43118;SDS011;28729;49.838;8.650;2023-02-28T14:47:11;8.25;;;4.43;;
43118;SDS011;28729;49.838;8.650;2023-02-28T14:51:20;9.23;;;4.90;;
43118;SDS011;28729;49.838;8.650;2023-02-28T14:55:34;9.65;;;4.82;;
43118;SDS011;28729;49.838;8.650;2023-02-28T14:59:37;10.05;;;4.50;;
43118;SDS011;28729;49.838;8.650;2023-02-28T15:03:39;8.83;;;5.77;;
43118;SDS011;28729;49.838;8.650;2023-02-28T15:07:43;7.82;;;4.75;;
43118;SDS011;28729;49.838;8.650;2023-02-28T15:11:46;8.95;;;4.70;;
43118;SDS011;28729;49.838;8.650;2023-02-28T15:15:51;9.88;;;5.47;;
43118;SDS011;28729;49.838;8.650;2023-02-28T15:20:05;12.40;;;5.45;;
43118;SDS011;28729;49.838;8.650;2023-02-28T15:28:28;14.18;;;6.20;;
43118;SDS011;28729;49.838;8.650;2023-02-28T15:36:34;9.15;;;4.93;;
43118;SDS011;28729;49.838;8.650;2023-02-28T15:40:40;9.57;;;4.93;;
43118;SDS011;28729;49.838;8.650;2023-02-28T15:44:43;8.93;;;5.20;;
43118;SDS011;28729;49.838;8.650;2023-02-28T15:48:52;8.00;;;4.97;;
43118;SDS011;28729;49.838;8.650;2023-02-28T15:52:55;12.43;;;5.53;;
43118;SDS011;28729;49.838;8.650;2023-02-28T15:56:58;15.20;;;6.63;;
43118;SDS011;28729;49.838;8.650;2023-02-28T16:01:08;8.35;;;5.18;;
43118;SDS011;28729;49.838;8.650;2023-02-28T16:09:29;7.00;;;3.97;;
43118;SDS011;28729;49.838;8.650;2023-02-28T16:13:35;7.40;;;3.67;;
43118;SDS011;28729;49.838;8.650;2023-02-28T16:21:40;6.63;;;4.13;;
43118;SDS011;28729;49.838;8.650;2023-02-28T16:25:42;7.35;;;4.40;;
43118;SDS011;28729;49.838;8.650;2023-02-28T16:29:48;8.05;;;4.53;;
43118;SDS011;28729;49.838;8.650;2023-02-28T16:33:51;9.87;;;4.27;;
43118;SDS011;28729;49.838;8.650;2023-02-28T16:37:53;10.43;;;5.35;;
43118;SDS011;28729;49.838;8.650;2023-02-28T16:41:55;6.30;;;3.40;;
43118;SDS011;28729;49.838;8.650;2023-02-28T16:45:57;8.45;;;4.43;;
43118;SDS011;28729;49.838;8.650;2023-02-28T16:50:04;7.90;;;4.00;;
43118;SDS011;28729;49.838;8.650;2023-02-28T16:54:14;10.70;;;4.57;;
43118;SDS011;28729;49.838;8.650;2023-02-28T16:58:16;23.67;;;10.38;;
43118;SDS011;28729;49.838;8.650;2023-02-28T17:06:25;22.95;;;9.27;;
43118;SDS011;28729;49.838;8.650;2023-02-28T17:10:31;16.63;;;7.07;;
43118;SDS011;28729;49.838;8.650;2023-02-28T17:14:34;9.95;;;5.10;;
43118;SDS011;28729;49.838;8.650;2023-02-28T17:18:36;11.70;;;5.45;;
43118;SDS011;28729;49.838;8.650;2023-02-28T17:22:40;19.60;;;7.35;;
43118;SDS011;28729;49.838;8.650;2023-02-28T17:26:42;8.93;;;4.47;;
43118;SDS011;28729;49.838;8.650;2023-02-28T17:30:43;13.40;;;5.55;;
43118;SDS011;28729;49.838;8.650;2023-02-28T17:34:48;9.73;;;4.60;;
43118;SDS011;28729;49.838;8.650;2023-02-28T17:38:50;8.02;;;4.20;;
43118;SDS011;28729;49.838;8.650;2023-02-28T17:42:51;6.60;;;3.70;;
43118;SDS011;28729;49.838;8.650;2023-02-28T17:46:54;7.75;;;3.88;;
43118;SDS011;28729;49.838;8.650;2023-02-28T17:50:56;8.82;;;3.95;;
43118;SDS011;28729;49.838;8.650;2023-02-28T17:54:58;11.38;;;4.13;;
43118;SDS011;28729;49.838;8.650;2023-02-28T17:58:59;5.43;;;3.75;;
43118;SDS011;28729;49.838;8.650;2023-02-28T18:03:02;11.32;;;3.58;;
43118;SDS011;28729;49.838;8.650;2023-02-28T18:07:05;7.22;;;3.65;;
43118;SDS011;28729;49.838;8.650;2023-02-28T18:11:07;6.28;;;3.60;;
43118;SDS011;28729;49.838;8.650;2023-02-28T18:15:18;14.27;;;6.00;;
43118;SDS011;28729;49.838;8.650;2023-02-28T18:19:21;36.35;;;13.18;;
43118;SDS011;28729;49.838;8.650;2023-02-28T18:23:23;32.80;;;11.03;;
43118;SDS011;28729;49.838;8.650;2023-02-28T18:31:27;9.05;;;4.82;;
43118;SDS011;28729;49.838;8.650;2023-02-28T18:35:30;6.15;;;3.53;;
43118;SDS011;28729;49.838;8.650;2023-02-28T18:39:38;7.03;;;3.63;;
43118;SDS011;28729;49.838;8.650;2023-02-28T18:43:40;7.20;;;3.70;;
43118;SDS011;28729;49.838;8.650;2023-02-28T18:47:42;8.03;;;4.00;;
43118;SDS011;28729;49.838;8.650;2023-02-28T18:51:48;7.45;;;3.45;;
43118;SDS011;28729;49.838;8.650;2023-02-28T18:55:50;8.20;;;3.80;;
43118;SDS011;28729;49.838;8.650;2023-02-28T18:59:51;8.07;;;3.22;;
43118;SDS011;28729;49.838;8.650;2023-02-28T19:03:53;8.60;;;3.67;;
43118;SDS011;28729;49.838;8.650;2023-02-28T19:07:54;7.10;;;3.22;;
43118;SDS011;28729;49.838;8.650;2023-02-28T19:11:57;8.90;;;4.53;;
43118;SDS011;28729;49.838;8.650;2023-02-28T19:16:00;7.75;;;4.47;;
43118;SDS011;28729;49.838;8.650;2023-02-28T19:20:03;8.02;;;3.92;;
43118;SDS011;28729;49.838;8.650;2023-02-28T19:24:07;6.82;;;4.15;;
43118;SDS011;28729;49.838;8.650;2023-02-28T19:28:08;9.07;;;4.07;;
43118;SDS011;28729;49.838;8.650;2023-02-28T19:32:11;7.35;;;3.72;;
43118;SDS011;28729;49.838;8.650;2023-02-28T19:36:13;7.68;;;4.28;;
43118;SDS011;28729;49.838;8.650;2023-02-28T19:40:15;9.23;;;4.63;;
43118;SDS011;28729;49.838;8.650;2023-02-28T19:44:17;9.77;;;4.33;;
43118;SDS011;28729;49.838;8.650;2023-02-28T19:48:19;9.20;;;4.43;;
43118;SDS011;28729;49.838;8.650;2023-02-28T19:52:25;9.45;;;5.70;;
43118;SDS011;28729;49.838;8.650;2023-02-28T19:56:27;8.30;;;4.65;;
43118;SDS011;28729;49.838;8.650;2023-02-28T20:00:29;11.65;;;5.50;;
43118;SDS011;28729;49.838;8.650;2023-02-28T20:04:33;10.73;;;5.18;;
43118;SDS011;28729;49.838;8.650;2023-02-28T20:08:35;38.45;;;13.95;;
43118;SDS011;28729;49.838;8.650;2023-02-28T20:12:39;50.22;;;16.90;;
43118;SDS011;28729;49.838;8.650;2023-02-28T20:16:43;46.17;;;15.50;;
43118;SDS011;28729;49.838;8.650;2023-02-28T20:20:46;31.60;;;12.43;;
43118;SDS011;28729;49.838;8.650;2023-02-28T20:24:48;31.20;;;12.55;;
43118;SDS011;28729;49.838;8.650;2023-02-28T20:28:49;24.95;;;9.65;;
43118;SDS011;28729;49.838;8.650;2023-02-28T20:32:51;35.35;;;13.20;;
43118;SDS011;28729;49.838;8.650;2023-02-28T20:36:53;23.75;;;10.40;;
43118;SDS011;28729;49.838;8.650;2023-02-28T20:40:59;32.80;;;11.90;;
43118;SDS011;28729;49.838;8.650;2023-02-28T20:45:02;34.30;;;12.73;;
43118;SDS011;28729;49.838;8.650;2023-02-28T20:49:04;35.55;;;13.95;;
43118;SDS011;28729;49.838;8.650;2023-02-28T20:53:06;55.43;;;19.77;;
43118;SDS011;28729;49.838;8.650;2023-02-28T20:57:08;26.42;;;10.95;;
43118;SDS011;28729;49.838;8.650;2023-02-28T21:01:17;36.65;;;12.75;;
43118;SDS011;28729;49.838;8.650;2023-02-28T21:05:26;51.58;;;18.50;;
43118;SDS011;28729;49.838;8.650;2023-02-28T21:09:31;35.88;;;15.18;;
43118;SDS011;28729;49.838;8.650;2023-02-28T21:13:33;38.65;;;14.63;;
43118;SDS011;28729;49.838;8.650;2023-02-28T21:17:35;27.55;;;12.10;;
43118;SDS011;28729;49.838;8.650;2023-02-28T21:21:38;25.40;;;10.93;;
43118;SDS011;28729;49.838;8.650;2023-02-28T21:25:44;16.13;;;7.82;;
43118;SDS011;28729;49.838;8.650;2023-02-28T21:29:45;13.30;;;6.88;;
43118;SDS011;28729;49.838;8.650;2023-02-28T21:33:47;18.67;;;7.50;;
43118;SDS011;28729;49.838;8.650;2023-02-28T21:37:49;14.10;;;7.27;;
43118;SDS011;28729;49.838;8.650;2023-02-28T21:41:51;20.45;;;7.13;;
43118;SDS011;28729;49.838;8.650;2023-02-28T21:49:55;12.50;;;6.70;;
43118;SDS011;28729;49.838;8.650;2023-02-28T21:53:57;15.93;;;7.25;;
43118;SDS011;28729;49.838;8.650;2023-02-28T21:57:59;14.13;;;6.80;;
43118;SDS011;28729;49.838;8.650;2023-02-28T22:02:01;14.75;;;6.60;;
43118;SDS011;28729;49.838;8.650;2023-02-28T22:06:13;11.95;;;6.18;;
43118;SDS011;28729;49.838;8.650;2023-02-28T22:10:16;12.63;;;6.07;;
43118;SDS011;28729;49.838;8.650;2023-02-28T22:14:18;13.43;;;6.90;;
43118;SDS011;28729;49.838;8.650;2023-02-28T22:18:19;11.13;;;6.03;;
43118;SDS011;28729;49.838;8.650;2023-02-28T22:22:22;14.88;;;6.75;;
43118;SDS011;28729;49.838;8.650;2023-02-28T22:26:23;13.65;;;6.47;;
43118;SDS011;28729;49.838;8.650;2023-02-28T22:30:25;11.38;;;6.05;;
43118;SDS011;28729;49.838;8.650;2023-02-28T22:34:26;11.60;;;6.50;;
43118;SDS011;28729;49.838;8.650;2023-02-28T22:38:28;12.82;;;6.25;;
43118;SDS011;28729;49.838;8.650;2023-02-28T22:42:33;17.75;;;7.03;;
43118;SDS011;28729;49.838;8.650;2023-02-28T22:46:35;13.95;;;6.55;;
43118;SDS011;28729;49.838;8.650;2023-02-28T22:50:37;13.35;;;6.18;;
43118;SDS011;28729;49.838;8.650;2023-02-28T22:54:38;10.40;;;5.78;;
43118;SDS011;28729;49.838;8.650;2023-02-28T22:58:40;29.88;;;11.52;;
43118;SDS011;28729;49.838;8.650;2023-02-28T23:02:44;13.38;;;7.03;;
43118;SDS011;28729;49.838;8.650;2023-02-28T23:06:46;61.40;;;22.27;;
43118;SDS011;28729;49.838;8.650;2023-02-28T23:10:48;181.90;;;52.95;;
43118;SDS011;28729;49.838;8.650;2023-02-28T23:14:51;276.88;;;70.70;;
43118;SDS011;28729;49.838;8.650;2023-02-28T23:18:53;457.63;;;126.30;;
43118;SDS011;28729;49.838;8.650;2023-02-28T23:22:56;120.70;;;44.00;;
43118;SDS011;28729;49.838;8.650;2023-02-28T23:26:59;50.15;;;23.17;;
43118;SDS011;28729;49.838;8.650;2023-02-28T23:31:02;21.92;;;11.82;;
43118;SDS011;28729;49.838;8.650;2023-02-28T23:35:05;20.98;;;10.18;;
43118;SDS011;28729;49.838;8.650;2023-02-28T23:39:11;15.10;;;8.02;;
43118;SDS011;28729;49.838;8.650;2023-02-28T23:47:15;16.73;;;6.53;;
43118;SDS011;28729;49.838;8.650;2023-02-28T23:51:18;14.23;;;6.47;;
43118;SDS011;28729;49.838;8.650;2023-02-28T23:55:21;12.80;;;7.13;;
43118;SDS011;28729;49.838;8.650;2023-02-28T23:59:22;17.25;;;7.85;;
